Other Surface Observations
Issued by NWS Great Falls, MT

Home | Current Version | Previous Version | Text Only | Print | Product List | Glossary On
Versions: 1 2 3 4 5 6 7 8 9 10 11 12 13 14 15 16 17 18 19 20 21 22 23 24 25 26 27 28 29 30 31 32 33 34 35 36 37 38 39 40 41 42 43 44 45 46 47 48 49 50
762
SXUS55 KTFX 210829
OSOTFX
AREA AWOS OBSERVATIONS
NATIONAL WEATHER SERVICE GREAT FALLS MT
0129 AM MST TUE FEB 21 2017

METAR KPWD 210830Z AUTO 12004KT 10SM 02/M01 A2962 RMK PLENTYWOOD
METAR KPO1 210830Z AUTO 22004KT 10SM 03/00 A2965 RMK POPLAR
METAR K1S3 210830Z AUTO 21005KT 10SM 09/M01 A2969 RMK FORSYTH
METAR KS71 210830Z AUTO 26006KT 10SM 04/01 A2962 RMK CHINOOK
METAR K79S 210830Z AUTO 34005KT 10SM 04/M01 A2966 RMK FORT BENTON
METAR K38S 210830Z AUTO 30004KT 10SM 02/M01 A2973 RMK DEER LODGE
METAR K3U3 210830Z AUTO 15012G19KT 10SM 05/M03 A2970 RMK ANACONDA
METAR K6S5 210830Z AUTO 19003KT 10SM 02/01 A2972 RMK HAMILTON
METAR KS59 210830Z AUTO 00000KT 10SM 01/M01 A2966 RMK LIBBY
METAR K88M 210830Z AUTO 16004KT 10SM 04/M02 A2967 RMK EUREKA



USA.gov is the U.S. government's official web portal to all federal, state and local government web resources and services.